sensor_id;sensor_type;location;lat;lon;timestamp;P1;durP1;ratioP1;P2;durP2;ratioP2
7336;SDS011;54510;42.016;23.098;2022-12-18T00:02:04;33.45;;;16.27;;
7336;SDS011;54510;42.016;23.098;2022-12-18T00:04:29;24.95;;;13.85;;
7336;SDS011;54510;42.016;23.098;2022-12-18T00:06:55;19.88;;;12.73;;
7336;SDS011;54510;42.016;23.098;2022-12-18T00:09:21;21.65;;;12.40;;
7336;SDS011;54510;42.016;23.098;2022-12-18T00:11:46;17.63;;;11.75;;
7336;SDS011;54510;42.016;23.098;2022-12-18T00:14:12;20.48;;;11.70;;
7336;SDS011;54510;42.016;23.098;2022-12-18T00:16:39;20.00;;;12.13;;
7336;SDS011;54510;42.016;23.098;2022-12-18T00:19:05;17.35;;;11.27;;
7336;SDS011;54510;42.016;23.098;2022-12-18T00:21:31;20.60;;;11.43;;
7336;SDS011;54510;42.016;23.098;2022-12-18T00:23:57;16.38;;;9.70;;
7336;SDS011;54510;42.016;23.098;2022-12-18T00:26:25;18.55;;;11.15;;
7336;SDS011;54510;42.016;23.098;2022-12-18T00:28:53;14.88;;;10.30;;
7336;SDS011;54510;42.016;23.098;2022-12-18T00:31:20;15.23;;;10.13;;
7336;SDS011;54510;42.016;23.098;2022-12-18T00:33:47;16.85;;;9.90;;
7336;SDS011;54510;42.016;23.098;2022-12-18T00:36:17;16.48;;;9.73;;
7336;SDS011;54510;42.016;23.098;2022-12-18T00:38:44;21.00;;;10.23;;
7336;SDS011;54510;42.016;23.098;2022-12-18T00:41:11;18.83;;;9.60;;
7336;SDS011;54510;42.016;23.098;2022-12-18T00:43:38;15.27;;;9.68;;
7336;SDS011;54510;42.016;23.098;2022-12-18T00:46:04;18.48;;;9.40;;
7336;SDS011;54510;42.016;23.098;2022-12-18T00:48:30;14.25;;;8.45;;
7336;SDS011;54510;42.016;23.098;2022-12-18T00:50:56;18.42;;;9.18;;
7336;SDS011;54510;42.016;23.098;2022-12-18T00:53:21;12.00;;;7.72;;
7336;SDS011;54510;42.016;23.098;2022-12-18T00:55:47;17.13;;;8.98;;
7336;SDS011;54510;42.016;23.098;2022-12-18T00:58:13;18.15;;;8.82;;
7336;SDS011;54510;42.016;23.098;2022-12-18T01:00:40;14.40;;;8.38;;
7336;SDS011;54510;42.016;23.098;2022-12-18T01:03:05;13.57;;;8.23;;
7336;SDS011;54510;42.016;23.098;2022-12-18T01:05:31;16.23;;;8.27;;
7336;SDS011;54510;42.016;23.098;2022-12-18T01:07:57;14.00;;;8.95;;
7336;SDS011;54510;42.016;23.098;2022-12-18T01:10:23;19.13;;;8.98;;
7336;SDS011;54510;42.016;23.098;2022-12-18T01:12:49;16.20;;;9.77;;
7336;SDS011;54510;42.016;23.098;2022-12-18T01:15:15;16.60;;;9.20;;
7336;SDS011;54510;42.016;23.098;2022-12-18T01:17:41;18.80;;;11.40;;
7336;SDS011;54510;42.016;23.098;2022-12-18T01:20:07;21.75;;;10.90;;
7336;SDS011;54510;42.016;23.098;2022-12-18T01:22:33;17.70;;;10.25;;
7336;SDS011;54510;42.016;23.098;2022-12-18T01:24:59;19.98;;;11.07;;
7336;SDS011;54510;42.016;23.098;2022-12-18T01:27:25;19.95;;;12.02;;
7336;SDS011;54510;42.016;23.098;2022-12-18T01:29:50;20.65;;;12.77;;
7336;SDS011;54510;42.016;23.098;2022-12-18T01:32:16;21.25;;;12.48;;
7336;SDS011;54510;42.016;23.098;2022-12-18T01:34:41;24.33;;;12.18;;
7336;SDS011;54510;42.016;23.098;2022-12-18T01:37:07;23.35;;;13.25;;
7336;SDS011;54510;42.016;23.098;2022-12-18T01:39:34;25.50;;;13.52;;
7336;SDS011;54510;42.016;23.098;2022-12-18T01:42:00;25.20;;;13.20;;
7336;SDS011;54510;42.016;23.098;2022-12-18T01:47:20;24.65;;;13.15;;
7336;SDS011;54510;42.016;23.098;2022-12-18T01:49:50;22.25;;;12.52;;
7336;SDS011;54510;42.016;23.098;2022-12-18T01:52:15;21.02;;;11.93;;
7336;SDS011;54510;42.016;23.098;2022-12-18T01:54:42;21.45;;;13.55;;
7336;SDS011;54510;42.016;23.098;2022-12-18T01:57:09;26.60;;;15.68;;
7336;SDS011;54510;42.016;23.098;2022-12-18T01:59:34;19.20;;;11.82;;
7336;SDS011;54510;42.016;23.098;2022-12-18T02:02:01;23.55;;;12.63;;
7336;SDS011;54510;42.016;23.098;2022-12-18T02:04:28;20.88;;;13.23;;
7336;SDS011;54510;42.016;23.098;2022-12-18T02:09:36;24.35;;;12.35;;
7336;SDS011;54510;42.016;23.098;2022-12-18T02:12:45;25.25;;;11.35;;
7336;SDS011;54510;42.016;23.098;2022-12-18T02:18:03;22.85;;;11.25;;
7336;SDS011;54510;42.016;23.098;2022-12-18T02:20:40;20.08;;;12.38;;
7336;SDS011;54510;42.016;23.098;2022-12-18T02:28:45;15.02;;;10.55;;
7336;SDS011;54510;42.016;23.098;2022-12-18T02:31:17;26.90;;;11.52;;
7336;SDS011;54510;42.016;23.098;2022-12-18T02:33:49;19.48;;;10.07;;
7336;SDS011;54510;42.016;23.098;2022-12-18T02:36:17;12.55;;;7.70;;
7336;SDS011;54510;42.016;23.098;2022-12-18T02:38:45;15.25;;;6.82;;
7336;SDS011;54510;42.016;23.098;2022-12-18T02:41:11;12.63;;;6.32;;
7336;SDS011;54510;42.016;23.098;2022-12-18T02:43:39;8.00;;;5.82;;
7336;SDS011;54510;42.016;23.098;2022-12-18T02:51:56;11.68;;;6.65;;
7336;SDS011;54510;42.016;23.098;2022-12-18T02:54:57;16.85;;;7.60;;
7336;SDS011;54510;42.016;23.098;2022-12-18T03:00:10;18.52;;;10.18;;
7336;SDS011;54510;42.016;23.098;2022-12-18T03:02:45;15.95;;;10.88;;
7336;SDS011;54510;42.016;23.098;2022-12-18T03:05:24;19.25;;;11.63;;
7336;SDS011;54510;42.016;23.098;2022-12-18T03:07:57;22.40;;;11.40;;
7336;SDS011;54510;42.016;23.098;2022-12-18T03:10:29;25.38;;;12.23;;
7336;SDS011;54510;42.016;23.098;2022-12-18T03:13:02;20.98;;;11.57;;
7336;SDS011;54510;42.016;23.098;2022-12-18T03:15:41;21.10;;;12.05;;
7336;SDS011;54510;42.016;23.098;2022-12-18T03:18:22;20.88;;;11.75;;
7336;SDS011;54510;42.016;23.098;2022-12-18T03:20:52;21.95;;;11.43;;
7336;SDS011;54510;42.016;23.098;2022-12-18T03:23:21;12.43;;;8.45;;
7336;SDS011;54510;42.016;23.098;2022-12-18T03:25:51;16.67;;;7.43;;
7336;SDS011;54510;42.016;23.098;2022-12-18T03:28:22;11.80;;;6.70;;
7336;SDS011;54510;42.016;23.098;2022-12-18T03:30:49;7.03;;;5.15;;
7336;SDS011;54510;42.016;23.098;2022-12-18T03:33:25;8.85;;;5.32;;
7336;SDS011;54510;42.016;23.098;2022-12-18T03:35:55;8.07;;;4.50;;
7336;SDS011;54510;42.016;23.098;2022-12-18T03:38:21;8.55;;;4.72;;
7336;SDS011;54510;42.016;23.098;2022-12-18T03:40:56;7.00;;;4.50;;
7336;SDS011;54510;42.016;23.098;2022-12-18T03:46:30;7.35;;;4.25;;
7336;SDS011;54510;42.016;23.098;2022-12-18T03:49:08;6.78;;;4.13;;
7336;SDS011;54510;42.016;23.098;2022-12-18T03:51:48;6.35;;;4.03;;
7336;SDS011;54510;42.016;23.098;2022-12-18T03:54:17;6.97;;;3.65;;
7336;SDS011;54510;42.016;23.098;2022-12-18T03:56:48;8.00;;;3.90;;
7336;SDS011;54510;42.016;23.098;2022-12-18T03:59:19;7.18;;;4.30;;
7336;SDS011;54510;42.016;23.098;2022-12-18T04:01:48;7.90;;;4.28;;
7336;SDS011;54510;42.016;23.098;2022-12-18T04:04:16;6.35;;;3.88;;
7336;SDS011;54510;42.016;23.098;2022-12-18T04:06:44;6.65;;;4.20;;
7336;SDS011;54510;42.016;23.098;2022-12-18T04:09:13;5.90;;;3.95;;
7336;SDS011;54510;42.016;23.098;2022-12-18T04:11:42;6.13;;;3.63;;
7336;SDS011;54510;42.016;23.098;2022-12-18T04:14:10;6.25;;;3.90;;
7336;SDS011;54510;42.016;23.098;2022-12-18T04:16:36;8.10;;;3.65;;
7336;SDS011;54510;42.016;23.098;2022-12-18T04:19:01;5.93;;;4.00;;
7336;SDS011;54510;42.016;23.098;2022-12-18T04:21:27;7.75;;;4.28;;
7336;SDS011;54510;42.016;23.098;2022-12-18T04:23:53;10.52;;;4.30;;
7336;SDS011;54510;42.016;23.098;2022-12-18T04:26:18;5.88;;;3.70;;
7336;SDS011;54510;42.016;23.098;2022-12-18T04:28:43;6.95;;;3.80;;
7336;SDS011;54510;42.016;23.098;2022-12-18T04:31:09;6.00;;;3.72;;
7336;SDS011;54510;42.016;23.098;2022-12-18T04:33:34;8.82;;;4.93;;
7336;SDS011;54510;42.016;23.098;2022-12-18T04:36:00;6.70;;;4.05;;
7336;SDS011;54510;42.016;23.098;2022-12-18T04:38:25;6.05;;;3.83;;
7336;SDS011;54510;42.016;23.098;2022-12-18T04:40:50;6.50;;;4.45;;
7336;SDS011;54510;42.016;23.098;2022-12-18T04:43:16;5.50;;;4.10;;
7336;SDS011;54510;42.016;23.098;2022-12-18T04:45:41;6.93;;;4.15;;
7336;SDS011;54510;42.016;23.098;2022-12-18T04:48:07;6.93;;;4.15;;
7336;SDS011;54510;42.016;23.098;2022-12-18T04:50:32;8.15;;;3.47;;
7336;SDS011;54510;42.016;23.098;2022-12-18T04:52:58;8.05;;;4.10;;
7336;SDS011;54510;42.016;23.098;2022-12-18T04:55:23;6.43;;;4.10;;
7336;SDS011;54510;42.016;23.098;2022-12-18T04:57:48;9.20;;;5.22;;
7336;SDS011;54510;42.016;23.098;2022-12-18T05:00:14;5.68;;;3.58;;
7336;SDS011;54510;42.016;23.098;2022-12-18T05:02:39;7.70;;;3.97;;
7336;SDS011;54510;42.016;23.098;2022-12-18T05:05:05;6.45;;;2.72;;
7336;SDS011;54510;42.016;23.098;2022-12-18T05:07:31;6.72;;;3.55;;
7336;SDS011;54510;42.016;23.098;2022-12-18T05:09:56;10.70;;;4.00;;
7336;SDS011;54510;42.016;23.098;2022-12-18T05:12:22;7.97;;;3.75;;
7336;SDS011;54510;42.016;23.098;2022-12-18T05:14:47;7.53;;;4.03;;
7336;SDS011;54510;42.016;23.098;2022-12-18T05:17:12;7.40;;;3.53;;
7336;SDS011;54510;42.016;23.098;2022-12-18T05:19:38;7.32;;;3.40;;
7336;SDS011;54510;42.016;23.098;2022-12-18T05:22:03;8.93;;;3.65;;
7336;SDS011;54510;42.016;23.098;2022-12-18T05:24:29;7.95;;;3.63;;
7336;SDS011;54510;42.016;23.098;2022-12-18T05:26:54;8.18;;;3.67;;
7336;SDS011;54510;42.016;23.098;2022-12-18T05:29:19;6.63;;;3.88;;
7336;SDS011;54510;42.016;23.098;2022-12-18T05:31:45;12.00;;;3.45;;
7336;SDS011;54510;42.016;23.098;2022-12-18T05:34:10;9.07;;;3.65;;
7336;SDS011;54510;42.016;23.098;2022-12-18T05:36:36;10.30;;;3.65;;
7336;SDS011;54510;42.016;23.098;2022-12-18T05:39:01;18.10;;;4.13;;
7336;SDS011;54510;42.016;23.098;2022-12-18T05:41:27;7.78;;;4.07;;
7336;SDS011;54510;42.016;23.098;2022-12-18T05:43:52;9.32;;;3.60;;
7336;SDS011;54510;42.016;23.098;2022-12-18T05:46:18;10.00;;;4.32;;
7336;SDS011;54510;42.016;23.098;2022-12-18T05:48:44;5.75;;;3.35;;
7336;SDS011;54510;42.016;23.098;2022-12-18T05:51:11;8.65;;;3.22;;
7336;SDS011;54510;42.016;23.098;2022-12-18T05:53:38;15.68;;;4.93;;
7336;SDS011;54510;42.016;23.098;2022-12-18T05:56:04;13.23;;;4.03;;
7336;SDS011;54510;42.016;23.098;2022-12-18T05:58:32;13.50;;;5.18;;
7336;SDS011;54510;42.016;23.098;2022-12-18T06:00:58;8.90;;;3.33;;
7336;SDS011;54510;42.016;23.098;2022-12-18T06:03:31;8.00;;;3.28;;
7336;SDS011;54510;42.016;23.098;2022-12-18T06:05:57;9.15;;;3.72;;
7336;SDS011;54510;42.016;23.098;2022-12-18T06:08:22;7.80;;;3.35;;
7336;SDS011;54510;42.016;23.098;2022-12-18T06:10:51;9.65;;;3.60;;
7336;SDS011;54510;42.016;23.098;2022-12-18T06:13:17;9.07;;;3.67;;
7336;SDS011;54510;42.016;23.098;2022-12-18T06:15:43;5.15;;;2.92;;
7336;SDS011;54510;42.016;23.098;2022-12-18T06:18:08;9.60;;;3.95;;
7336;SDS011;54510;42.016;23.098;2022-12-18T06:20:34;6.30;;;3.70;;
7336;SDS011;54510;42.016;23.098;2022-12-18T06:23:01;15.98;;;4.72;;
7336;SDS011;54510;42.016;23.098;2022-12-18T06:25:27;10.43;;;5.07;;
7336;SDS011;54510;42.016;23.098;2022-12-18T06:27:52;7.97;;;4.65;;
7336;SDS011;54510;42.016;23.098;2022-12-18T06:30:18;9.77;;;5.07;;
7336;SDS011;54510;42.016;23.098;2022-12-18T06:32:43;6.88;;;3.97;;
7336;SDS011;54510;42.016;23.098;2022-12-18T06:35:09;6.68;;;3.47;;
7336;SDS011;54510;42.016;23.098;2022-12-18T06:37:35;7.00;;;4.30;;
7336;SDS011;54510;42.016;23.098;2022-12-18T06:40:00;5.38;;;3.45;;
7336;SDS011;54510;42.016;23.098;2022-12-18T06:42:26;6.38;;;3.60;;
7336;SDS011;54510;42.016;23.098;2022-12-18T06:44:51;6.00;;;4.00;;
7336;SDS011;54510;42.016;23.098;2022-12-18T06:47:16;5.47;;;3.53;;
7336;SDS011;54510;42.016;23.098;2022-12-18T06:49:42;6.35;;;3.38;;
7336;SDS011;54510;42.016;23.098;2022-12-18T06:52:08;5.85;;;3.22;;
7336;SDS011;54510;42.016;23.098;2022-12-18T06:54:33;5.07;;;3.10;;
7336;SDS011;54510;42.016;23.098;2022-12-18T06:56:59;4.32;;;3.13;;
7336;SDS011;54510;42.016;23.098;2022-12-18T06:59:24;5.85;;;3.90;;
7336;SDS011;54510;42.016;23.098;2022-12-18T07:01:50;5.13;;;2.92;;
7336;SDS011;54510;42.016;23.098;2022-12-18T07:04:15;6.28;;;3.40;;
7336;SDS011;54510;42.016;23.098;2022-12-18T07:06:41;8.45;;;4.05;;
7336;SDS011;54510;42.016;23.098;2022-12-18T07:09:07;6.70;;;3.70;;
7336;SDS011;54510;42.016;23.098;2022-12-18T07:11:33;5.63;;;3.55;;
7336;SDS011;54510;42.016;23.098;2022-12-18T07:13:58;6.25;;;3.10;;
7336;SDS011;54510;42.016;23.098;2022-12-18T07:16:24;4.20;;;2.70;;
7336;SDS011;54510;42.016;23.098;2022-12-18T07:18:49;5.93;;;3.60;;
7336;SDS011;54510;42.016;23.098;2022-12-18T07:21:16;13.80;;;3.28;;
7336;SDS011;54510;42.016;23.098;2022-12-18T07:23:43;7.60;;;3.60;;
7336;SDS011;54510;42.016;23.098;2022-12-18T07:26:12;5.97;;;3.58;;
7336;SDS011;54510;42.016;23.098;2022-12-18T07:28:39;5.00;;;2.88;;
7336;SDS011;54510;42.016;23.098;2022-12-18T07:31:06;4.93;;;2.80;;
7336;SDS011;54510;42.016;23.098;2022-12-18T07:33:33;4.45;;;3.13;;
7336;SDS011;54510;42.016;23.098;2022-12-18T07:36:03;6.65;;;3.22;;
7336;SDS011;54510;42.016;23.098;2022-12-18T07:38:30;5.57;;;3.20;;
7336;SDS011;54510;42.016;23.098;2022-12-18T07:41:03;5.53;;;3.72;;
7336;SDS011;54510;42.016;23.098;2022-12-18T07:43:31;5.53;;;3.60;;
7336;SDS011;54510;42.016;23.098;2022-12-18T07:45:58;5.72;;;3.95;;
7336;SDS011;54510;42.016;23.098;2022-12-18T07:48:23;7.38;;;3.78;;
7336;SDS011;54510;42.016;23.098;2022-12-18T07:50:48;6.47;;;3.45;;
7336;SDS011;54510;42.016;23.098;2022-12-18T07:53:14;6.47;;;4.20;;
7336;SDS011;54510;42.016;23.098;2022-12-18T07:55:40;6.93;;;3.72;;
7336;SDS011;54510;42.016;23.098;2022-12-18T07:58:06;6.22;;;3.35;;
7336;SDS011;54510;42.016;23.098;2022-12-18T08:00:31;10.38;;;3.92;;
7336;SDS011;54510;42.016;23.098;2022-12-18T08:02:57;8.68;;;4.35;;
7336;SDS011;54510;42.016;23.098;2022-12-18T08:05:22;6.68;;;3.83;;
7336;SDS011;54510;42.016;23.098;2022-12-18T08:07:48;7.07;;;3.90;;
7336;SDS011;54510;42.016;23.098;2022-12-18T08:10:13;7.80;;;4.30;;
7336;SDS011;54510;42.016;23.098;2022-12-18T08:12:39;6.75;;;3.72;;
7336;SDS011;54510;42.016;23.098;2022-12-18T08:15:04;7.75;;;4.20;;
7336;SDS011;54510;42.016;23.098;2022-12-18T08:17:30;12.13;;;5.15;;
7336;SDS011;54510;42.016;23.098;2022-12-18T08:19:56;8.20;;;5.00;;
7336;SDS011;54510;42.016;23.098;2022-12-18T08:22:21;6.18;;;4.38;;
7336;SDS011;54510;42.016;23.098;2022-12-18T08:24:46;6.15;;;4.05;;
7336;SDS011;54510;42.016;23.098;2022-12-18T08:27:12;6.85;;;3.65;;
7336;SDS011;54510;42.016;23.098;2022-12-18T08:29:37;6.40;;;4.07;;
7336;SDS011;54510;42.016;23.098;2022-12-18T08:32:03;10.05;;;5.30;;
7336;SDS011;54510;42.016;23.098;2022-12-18T08:34:28;7.72;;;5.00;;
7336;SDS011;54510;42.016;23.098;2022-12-18T08:36:54;8.52;;;5.55;;
7336;SDS011;54510;42.016;23.098;2022-12-18T08:39:19;9.07;;;5.93;;
7336;SDS011;54510;42.016;23.098;2022-12-18T08:41:45;6.60;;;5.47;;
7336;SDS011;54510;42.016;23.098;2022-12-18T08:44:30;8.73;;;5.60;;
7336;SDS011;54510;42.016;23.098;2022-12-18T08:47:05;9.50;;;5.88;;
7336;SDS011;54510;42.016;23.098;2022-12-18T08:49:31;8.32;;;5.32;;
7336;SDS011;54510;42.016;23.098;2022-12-18T08:51:57;7.90;;;5.05;;
7336;SDS011;54510;42.016;23.098;2022-12-18T08:54:23;9.70;;;4.70;;
7336;SDS011;54510;42.016;23.098;2022-12-18T08:56:49;10.07;;;5.22;;
7336;SDS011;54510;42.016;23.098;2022-12-18T08:59:18;9.75;;;4.80;;
7336;SDS011;54510;42.016;23.098;2022-12-18T09:01:44;8.48;;;5.25;;
7336;SDS011;54510;42.016;23.098;2022-12-18T09:04:10;6.40;;;4.40;;
7336;SDS011;54510;42.016;23.098;2022-12-18T09:06:36;7.65;;;4.85;;
7336;SDS011;54510;42.016;23.098;2022-12-18T09:09:03;8.23;;;5.03;;
7336;SDS011;54510;42.016;23.098;2022-12-18T09:11:30;11.43;;;5.15;;
7336;SDS011;54510;42.016;23.098;2022-12-18T09:13:56;11.85;;;5.45;;
7336;SDS011;54510;42.016;23.098;2022-12-18T09:16:23;8.32;;;5.20;;
7336;SDS011;54510;42.016;23.098;2022-12-18T09:18:49;9.25;;;5.28;;
7336;SDS011;54510;42.016;23.098;2022-12-18T09:21:16;7.28;;;4.55;;
7336;SDS011;54510;42.016;23.098;2022-12-18T09:23:43;8.65;;;5.70;;
7336;SDS011;54510;42.016;23.098;2022-12-18T09:26:09;10.02;;;5.97;;
7336;SDS011;54510;42.016;23.098;2022-12-18T09:28:35;11.40;;;5.72;;
7336;SDS011;54510;42.016;23.098;2022-12-18T09:31:04;8.20;;;5.18;;
7336;SDS011;54510;42.016;23.098;2022-12-18T09:33:32;8.77;;;4.90;;
7336;SDS011;54510;42.016;23.098;2022-12-18T09:36:00;9.52;;;5.85;;
7336;SDS011;54510;42.016;23.098;2022-12-18T09:38:27;11.15;;;6.53;;
7336;SDS011;54510;42.016;23.098;2022-12-18T09:40:53;10.57;;;6.78;;
7336;SDS011;54510;42.016;23.098;2022-12-18T09:43:32;10.20;;;6.40;;
7336;SDS011;54510;42.016;23.098;2022-12-18T09:46:06;9.02;;;6.95;;
7336;SDS011;54510;42.016;23.098;2022-12-18T09:48:36;8.60;;;5.20;;
7336;SDS011;54510;42.016;23.098;2022-12-18T09:51:10;8.77;;;5.93;;
7336;SDS011;54510;42.016;23.098;2022-12-18T09:53:44;12.00;;;6.72;;
7336;SDS011;54510;42.016;23.098;2022-12-18T09:56:16;9.68;;;6.32;;
7336;SDS011;54510;42.016;23.098;2022-12-18T09:58:46;9.65;;;5.32;;
7336;SDS011;54510;42.016;23.098;2022-12-18T10:01:26;9.75;;;5.60;;
7336;SDS011;54510;42.016;23.098;2022-12-18T10:03:52;10.73;;;6.43;;
7336;SDS011;54510;42.016;23.098;2022-12-18T10:19:45;9.25;;;5.68;;
7336;SDS011;54510;42.016;23.098;2022-12-18T10:27:42;9.13;;;6.28;;
7336;SDS011;54510;42.016;23.098;2022-12-18T10:30:18;10.18;;;6.78;;
7336;SDS011;54510;42.016;23.098;2022-12-18T10:32:45;11.88;;;7.20;;
7336;SDS011;54510;42.016;23.098;2022-12-18T10:37:58;8.07;;;5.28;;
7336;SDS011;54510;42.016;23.098;2022-12-18T10:40:25;9.30;;;6.18;;
7336;SDS011;54510;42.016;23.098;2022-12-18T10:46:04;16.58;;;8.25;;
7336;SDS011;54510;42.016;23.098;2022-12-18T10:51:22;10.27;;;7.32;;
